Skip Navigation Links Skip Navigation Links

Current Weather

Tracy Muni, Tracy, Calif.

For information only: do not use for flight planning or navigation.
Latest weather
Observation time Tuesday, October 19, 2021 12:35 AM PDT
Local time Tuesday, October 19, 2021 12:49 AM PDT
Flight conditions Visual Meteorological Conditions
Winds
Wind speed calm
Visibility 10 mi.
Sky condition
Ceiling unlimited
Sky clear
Temperature 50°F
Dewpoint 41°F
Altimeter 30.03 in.Hg
Derived measurements
Relative humidity 71%
Wind chill 50°F
Density altitude -402 ft.
Remarks
Fully automated report.
METAR KTCY 190735Z AUTO 00000KT 10SM CLR 10/05 A3003 RMK A01

Settings

Location code

InnerDrive.Weather 4.0.6770.0 Release CLR 4.0.30319.42000
Copyright ©2018 Inner Drive Technology. All rights reserved. Portions Copyright ©1986-2018 David Braverman.

Find weather

Site navigation


Skip Navigation Links

Place info

Page info

PayPal - The safer, easier way to pay online!

Return home.

Copyright ©2021 Inner Drive Technology. Purveyors of fine, hand-crafted computer software. Page printed 2021-10-19T07:49:12 UTC.